sensor_id;sensor_type;location;lat;lon;timestamp;P1;durP1;ratioP1;P2;durP2;ratioP2
41333;SDS011;27078;46.428;6.256;2023-09-19T00:02:00;2.80;;;1.10;;
41333;SDS011;27078;46.428;6.256;2023-09-19T00:04:30;3.28;;;1.15;;
41333;SDS011;27078;46.428;6.256;2023-09-19T00:06:57;2.25;;;1.02;;
41333;SDS011;27078;46.428;6.256;2023-09-19T00:09:22;2.10;;;1.00;;
41333;SDS011;27078;46.428;6.256;2023-09-19T00:11:51;2.83;;;0.80;;
41333;SDS011;27078;46.428;6.256;2023-09-19T00:14:16;6.13;;;1.00;;
41333;SDS011;27078;46.428;6.256;2023-09-19T00:16:42;2.40;;;1.00;;
41333;SDS011;27078;46.428;6.256;2023-09-19T00:19:07;2.20;;;0.93;;
41333;SDS011;27078;46.428;6.256;2023-09-19T00:21:33;2.17;;;0.77;;
41333;SDS011;27078;46.428;6.256;2023-09-19T00:24:00;1.40;;;0.70;;
41333;SDS011;27078;46.428;6.256;2023-09-19T00:26:26;2.38;;;0.70;;
41333;SDS011;27078;46.428;6.256;2023-09-19T00:28:54;3.03;;;0.80;;
41333;SDS011;27078;46.428;6.256;2023-09-19T00:31:20;2.63;;;1.00;;
41333;SDS011;27078;46.428;6.256;2023-09-19T00:33:50;2.33;;;0.80;;
41333;SDS011;27078;46.428;6.256;2023-09-19T00:36:16;2.00;;;0.85;;
41333;SDS011;27078;46.428;6.256;2023-09-19T00:38:43;2.55;;;0.77;;
41333;SDS011;27078;46.428;6.256;2023-09-19T00:41:10;2.58;;;0.90;;
41333;SDS011;27078;46.428;6.256;2023-09-19T00:43:37;1.65;;;0.85;;
41333;SDS011;27078;46.428;6.256;2023-09-19T00:46:04;3.45;;;1.00;;
41333;SDS011;27078;46.428;6.256;2023-09-19T00:48:31;4.07;;;1.10;;
41333;SDS011;27078;46.428;6.256;2023-09-19T00:51:02;1.92;;;0.90;;
41333;SDS011;27078;46.428;6.256;2023-09-19T00:53:29;2.83;;;0.80;;
41333;SDS011;27078;46.428;6.256;2023-09-19T00:55:56;2.25;;;0.88;;
41333;SDS011;27078;46.428;6.256;2023-09-19T00:58:21;2.15;;;0.70;;
41333;SDS011;27078;46.428;6.256;2023-09-19T01:00:48;4.35;;;0.93;;
41333;SDS011;27078;46.428;6.256;2023-09-19T01:03:14;2.60;;;0.80;;
41333;SDS011;27078;46.428;6.256;2023-09-19T01:05:39;3.05;;;0.60;;
41333;SDS011;27078;46.428;6.256;2023-09-19T01:08:05;2.95;;;0.90;;
41333;SDS011;27078;46.428;6.256;2023-09-19T01:10:31;2.55;;;0.70;;
41333;SDS011;27078;46.428;6.256;2023-09-19T01:20:58;2.47;;;0.77;;
41333;SDS011;27078;46.428;6.256;2023-09-19T01:23:30;2.83;;;0.63;;
41333;SDS011;27078;46.428;6.256;2023-09-19T01:31:44;3.05;;;0.70;;
41333;SDS011;27078;46.428;6.256;2023-09-19T01:34:11;2.15;;;0.77;;
41333;SDS011;27078;46.428;6.256;2023-09-19T01:36:37;2.25;;;0.52;;
41333;SDS011;27078;46.428;6.256;2023-09-19T01:39:07;4.20;;;0.80;;
41333;SDS011;27078;46.428;6.256;2023-09-19T01:41:45;1.95;;;0.63;;
41333;SDS011;27078;46.428;6.256;2023-09-19T01:47:43;2.28;;;0.65;;
41333;SDS011;27078;46.428;6.256;2023-09-19T01:52:56;2.63;;;0.90;;
41333;SDS011;27078;46.428;6.256;2023-09-19T01:55:29;2.35;;;0.85;;
41333;SDS011;27078;46.428;6.256;2023-09-19T01:58:04;3.53;;;0.80;;
41333;SDS011;27078;46.428;6.256;2023-09-19T02:00:34;4.65;;;0.88;;
41333;SDS011;27078;46.428;6.256;2023-09-19T02:03:02;2.13;;;0.80;;
41333;SDS011;27078;46.428;6.256;2023-09-19T02:05:28;2.65;;;0.75;;
41333;SDS011;27078;46.428;6.256;2023-09-19T02:07:54;5.20;;;1.08;;
41333;SDS011;27078;46.428;6.256;2023-09-19T02:10:20;2.80;;;0.90;;
41333;SDS011;27078;46.428;6.256;2023-09-19T02:12:46;1.60;;;0.90;;
41333;SDS011;27078;46.428;6.256;2023-09-19T02:15:12;2.85;;;0.90;;
41333;SDS011;27078;46.428;6.256;2023-09-19T02:17:37;2.25;;;0.73;;
41333;SDS011;27078;46.428;6.256;2023-09-19T02:20:03;2.00;;;0.80;;
41333;SDS011;27078;46.428;6.256;2023-09-19T02:22:36;2.78;;;0.90;;
41333;SDS011;27078;46.428;6.256;2023-09-19T02:25:02;2.85;;;1.00;;
41333;SDS011;27078;46.428;6.256;2023-09-19T02:27:30;2.42;;;1.00;;
41333;SDS011;27078;46.428;6.256;2023-09-19T02:29:55;2.10;;;0.90;;
41333;SDS011;27078;46.428;6.256;2023-09-19T02:32:21;3.22;;;0.95;;
41333;SDS011;27078;46.428;6.256;2023-09-19T02:34:46;2.47;;;0.90;;
41333;SDS011;27078;46.428;6.256;2023-09-19T02:37:12;3.03;;;0.88;;
41333;SDS011;27078;46.428;6.256;2023-09-19T02:39:38;4.22;;;1.00;;
41333;SDS011;27078;46.428;6.256;2023-09-19T02:42:04;2.45;;;1.00;;
41333;SDS011;27078;46.428;6.256;2023-09-19T02:44:29;3.03;;;1.08;;
41333;SDS011;27078;46.428;6.256;2023-09-19T02:46:55;2.28;;;1.05;;
41333;SDS011;27078;46.428;6.256;2023-09-19T02:49:22;3.28;;;1.15;;
41333;SDS011;27078;46.428;6.256;2023-09-19T02:51:47;3.10;;;0.90;;
41333;SDS011;27078;46.428;6.256;2023-09-19T02:54:13;2.33;;;1.00;;
41333;SDS011;27078;46.428;6.256;2023-09-19T02:56:38;3.33;;;1.15;;
41333;SDS011;27078;46.428;6.256;2023-09-19T02:59:04;1.88;;;0.70;;
41333;SDS011;27078;46.428;6.256;2023-09-19T03:01:30;2.95;;;1.00;;
41333;SDS011;27078;46.428;6.256;2023-09-19T03:03:56;2.28;;;0.98;;
41333;SDS011;27078;46.428;6.256;2023-09-19T03:06:21;2.80;;;0.98;;
41333;SDS011;27078;46.428;6.256;2023-09-19T03:08:48;2.97;;;0.98;;
41333;SDS011;27078;46.428;6.256;2023-09-19T03:11:16;3.42;;;0.80;;
41333;SDS011;27078;46.428;6.256;2023-09-19T03:13:50;2.75;;;1.17;;
41333;SDS011;27078;46.428;6.256;2023-09-19T03:16:16;3.88;;;0.98;;
41333;SDS011;27078;46.428;6.256;2023-09-19T03:18:41;4.60;;;1.05;;
41333;SDS011;27078;46.428;6.256;2023-09-19T03:21:06;2.83;;;1.30;;
41333;SDS011;27078;46.428;6.256;2023-09-19T03:23:32;2.95;;;1.10;;
41333;SDS011;27078;46.428;6.256;2023-09-19T03:25:57;5.55;;;1.20;;
41333;SDS011;27078;46.428;6.256;2023-09-19T03:28:24;2.60;;;0.80;;
41333;SDS011;27078;46.428;6.256;2023-09-19T03:30:59;2.40;;;0.77;;
41333;SDS011;27078;46.428;6.256;2023-09-19T03:33:26;3.53;;;1.00;;
41333;SDS011;27078;46.428;6.256;2023-09-19T03:35:54;2.28;;;0.93;;
41333;SDS011;27078;46.428;6.256;2023-09-19T03:38:20;1.40;;;0.90;;
41333;SDS011;27078;46.428;6.256;2023-09-19T03:40:47;3.95;;;1.00;;
41333;SDS011;27078;46.428;6.256;2023-09-19T03:43:13;2.72;;;0.93;;
41333;SDS011;27078;46.428;6.256;2023-09-19T03:45:39;2.67;;;0.90;;
41333;SDS011;27078;46.428;6.256;2023-09-19T03:48:08;4.10;;;0.93;;
41333;SDS011;27078;46.428;6.256;2023-09-19T03:50:34;3.90;;;0.90;;
41333;SDS011;27078;46.428;6.256;2023-09-19T03:53:00;3.08;;;0.95;;
41333;SDS011;27078;46.428;6.256;2023-09-19T03:55:25;3.22;;;1.00;;
41333;SDS011;27078;46.428;6.256;2023-09-19T03:57:50;2.70;;;1.05;;
41333;SDS011;27078;46.428;6.256;2023-09-19T04:00:17;2.17;;;1.00;;
41333;SDS011;27078;46.428;6.256;2023-09-19T04:02:46;1.63;;;0.95;;
41333;SDS011;27078;46.428;6.256;2023-09-19T04:05:11;3.30;;;1.10;;
41333;SDS011;27078;46.428;6.256;2023-09-19T04:07:37;2.55;;;0.95;;
41333;SDS011;27078;46.428;6.256;2023-09-19T04:10:02;1.80;;;0.93;;
41333;SDS011;27078;46.428;6.256;2023-09-19T04:12:28;5.57;;;0.93;;
41333;SDS011;27078;46.428;6.256;2023-09-19T04:14:53;1.55;;;0.80;;
41333;SDS011;27078;46.428;6.256;2023-09-19T04:17:19;2.72;;;0.80;;
41333;SDS011;27078;46.428;6.256;2023-09-19T04:19:44;1.85;;;0.70;;
41333;SDS011;27078;46.428;6.256;2023-09-19T04:22:10;4.30;;;0.90;;
41333;SDS011;27078;46.428;6.256;2023-09-19T04:24:37;2.33;;;0.80;;
41333;SDS011;27078;46.428;6.256;2023-09-19T04:27:03;3.85;;;0.85;;
41333;SDS011;27078;46.428;6.256;2023-09-19T04:29:29;4.32;;;1.00;;
41333;SDS011;27078;46.428;6.256;2023-09-19T04:31:55;2.50;;;0.90;;
41333;SDS011;27078;46.428;6.256;2023-09-19T04:34:21;6.18;;;0.90;;
41333;SDS011;27078;46.428;6.256;2023-09-19T04:36:47;1.60;;;0.80;;
41333;SDS011;27078;46.428;6.256;2023-09-19T04:39:12;3.33;;;0.82;;
41333;SDS011;27078;46.428;6.256;2023-09-19T04:41:38;2.83;;;1.00;;
41333;SDS011;27078;46.428;6.256;2023-09-19T04:44:06;2.05;;;0.70;;
41333;SDS011;27078;46.428;6.256;2023-09-19T04:46:33;2.55;;;0.80;;
41333;SDS011;27078;46.428;6.256;2023-09-19T04:48:58;2.75;;;0.80;;
41333;SDS011;27078;46.428;6.256;2023-09-19T04:51:24;2.10;;;0.75;;
41333;SDS011;27078;46.428;6.256;2023-09-19T04:53:50;3.85;;;0.90;;
41333;SDS011;27078;46.428;6.256;2023-09-19T04:56:16;2.65;;;0.70;;
41333;SDS011;27078;46.428;6.256;2023-09-19T04:58:41;4.20;;;0.93;;
41333;SDS011;27078;46.428;6.256;2023-09-19T05:01:07;3.92;;;0.70;;
41333;SDS011;27078;46.428;6.256;2023-09-19T05:03:36;2.35;;;0.52;;
41333;SDS011;27078;46.428;6.256;2023-09-19T05:06:02;4.28;;;0.90;;
41333;SDS011;27078;46.428;6.256;2023-09-19T05:08:27;1.63;;;0.70;;
41333;SDS011;27078;46.428;6.256;2023-09-19T05:10:53;1.35;;;0.50;;
41333;SDS011;27078;46.428;6.256;2023-09-19T05:13:18;2.00;;;0.60;;
41333;SDS011;27078;46.428;6.256;2023-09-19T05:15:43;3.17;;;0.77;;
41333;SDS011;27078;46.428;6.256;2023-09-19T05:18:09;2.45;;;0.73;;
41333;SDS011;27078;46.428;6.256;2023-09-19T05:20:35;4.15;;;0.77;;
41333;SDS011;27078;46.428;6.256;2023-09-19T05:23:03;4.32;;;0.93;;
41333;SDS011;27078;46.428;6.256;2023-09-19T05:25:32;1.05;;;0.60;;
41333;SDS011;27078;46.428;6.256;2023-09-19T05:28:02;2.55;;;0.60;;
41333;SDS011;27078;46.428;6.256;2023-09-19T05:30:30;1.60;;;0.60;;
41333;SDS011;27078;46.428;6.256;2023-09-19T05:32:57;2.65;;;0.60;;
41333;SDS011;27078;46.428;6.256;2023-09-19T05:35:23;1.95;;;0.68;;
41333;SDS011;27078;46.428;6.256;2023-09-19T05:37:52;2.88;;;0.70;;
41333;SDS011;27078;46.428;6.256;2023-09-19T05:40:18;2.00;;;0.65;;
41333;SDS011;27078;46.428;6.256;2023-09-19T05:42:44;2.47;;;0.70;;
41333;SDS011;27078;46.428;6.256;2023-09-19T05:45:09;2.85;;;0.70;;
41333;SDS011;27078;46.428;6.256;2023-09-19T05:47:37;2.35;;;0.75;;
41333;SDS011;27078;46.428;6.256;2023-09-19T05:50:06;2.20;;;0.98;;
41333;SDS011;27078;46.428;6.256;2023-09-19T05:52:53;2.25;;;0.73;;
41333;SDS011;27078;46.428;6.256;2023-09-19T05:55:20;3.13;;;0.60;;
41333;SDS011;27078;46.428;6.256;2023-09-19T05:57:52;1.70;;;0.70;;
41333;SDS011;27078;46.428;6.256;2023-09-19T06:00:21;2.63;;;0.80;;
41333;SDS011;27078;46.428;6.256;2023-09-19T06:02:51;2.55;;;0.90;;
41333;SDS011;27078;46.428;6.256;2023-09-19T06:05:18;4.95;;;1.02;;
41333;SDS011;27078;46.428;6.256;2023-09-19T06:07:44;3.72;;;1.05;;
41333;SDS011;27078;46.428;6.256;2023-09-19T06:10:09;4.53;;;0.90;;
41333;SDS011;27078;46.428;6.256;2023-09-19T06:12:38;2.67;;;0.60;;
41333;SDS011;27078;46.428;6.256;2023-09-19T06:15:04;1.75;;;0.85;;
41333;SDS011;27078;46.428;6.256;2023-09-19T06:17:31;2.25;;;0.70;;
41333;SDS011;27078;46.428;6.256;2023-09-19T06:19:56;2.28;;;0.60;;
41333;SDS011;27078;46.428;6.256;2023-09-19T06:22:22;2.20;;;1.00;;
41333;SDS011;27078;46.428;6.256;2023-09-19T06:24:48;2.45;;;0.77;;
41333;SDS011;27078;46.428;6.256;2023-09-19T06:27:14;2.50;;;0.60;;
41333;SDS011;27078;46.428;6.256;2023-09-19T06:29:39;2.53;;;0.57;;
41333;SDS011;27078;46.428;6.256;2023-09-19T06:32:07;2.30;;;0.70;;
41333;SDS011;27078;46.428;6.256;2023-09-19T06:34:36;2.38;;;0.70;;
41333;SDS011;27078;46.428;6.256;2023-09-19T06:37:03;1.95;;;0.70;;
41333;SDS011;27078;46.428;6.256;2023-09-19T06:39:30;2.45;;;0.90;;
41333;SDS011;27078;46.428;6.256;2023-09-19T06:41:56;3.10;;;0.70;;
41333;SDS011;27078;46.428;6.256;2023-09-19T06:44:21;2.22;;;0.80;;
41333;SDS011;27078;46.428;6.256;2023-09-19T06:46:49;3.53;;;0.90;;
41333;SDS011;27078;46.428;6.256;2023-09-19T06:49:16;2.83;;;0.88;;
41333;SDS011;27078;46.428;6.256;2023-09-19T06:51:42;2.13;;;1.00;;
41333;SDS011;27078;46.428;6.256;2023-09-19T06:54:08;2.30;;;0.73;;
41333;SDS011;27078;46.428;6.256;2023-09-19T06:56:34;2.40;;;0.82;;
41333;SDS011;27078;46.428;6.256;2023-09-19T06:58:59;2.85;;;1.10;;
41333;SDS011;27078;46.428;6.256;2023-09-19T07:01:25;3.45;;;1.00;;
41333;SDS011;27078;46.428;6.256;2023-09-19T07:03:51;3.80;;;0.90;;
41333;SDS011;27078;46.428;6.256;2023-09-19T07:06:18;4.85;;;1.30;;
41333;SDS011;27078;46.428;6.256;2023-09-19T07:08:43;3.15;;;0.80;;
41333;SDS011;27078;46.428;6.256;2023-09-19T07:11:10;3.47;;;1.23;;
41333;SDS011;27078;46.428;6.256;2023-09-19T07:13:37;3.13;;;0.90;;
41333;SDS011;27078;46.428;6.256;2023-09-19T07:16:03;4.68;;;0.93;;
41333;SDS011;27078;46.428;6.256;2023-09-19T07:18:29;1.65;;;0.80;;
41333;SDS011;27078;46.428;6.256;2023-09-19T07:20:56;3.08;;;0.90;;
41333;SDS011;27078;46.428;6.256;2023-09-19T07:23:26;2.97;;;0.75;;
41333;SDS011;27078;46.428;6.256;2023-09-19T07:25:51;1.75;;;0.70;;
41333;SDS011;27078;46.428;6.256;2023-09-19T07:28:17;2.63;;;0.80;;
41333;SDS011;27078;46.428;6.256;2023-09-19T07:30:42;2.90;;;0.80;;
41333;SDS011;27078;46.428;6.256;2023-09-19T07:33:08;2.05;;;0.93;;
41333;SDS011;27078;46.428;6.256;2023-09-19T07:35:36;2.03;;;0.80;;
41333;SDS011;27078;46.428;6.256;2023-09-19T07:38:04;2.30;;;0.90;;
41333;SDS011;27078;46.428;6.256;2023-09-19T07:40:30;2.63;;;1.10;;
41333;SDS011;27078;46.428;6.256;2023-09-19T07:42:55;3.45;;;0.90;;
41333;SDS011;27078;46.428;6.256;2023-09-19T07:45:21;2.20;;;0.75;;
41333;SDS011;27078;46.428;6.256;2023-09-19T07:47:46;4.20;;;0.60;;
41333;SDS011;27078;46.428;6.256;2023-09-19T07:50:13;1.42;;;0.60;;
41333;SDS011;27078;46.428;6.256;2023-09-19T07:52:41;1.95;;;0.60;;
41333;SDS011;27078;46.428;6.256;2023-09-19T07:55:07;1.33;;;0.60;;
41333;SDS011;27078;46.428;6.256;2023-09-19T07:57:34;2.55;;;0.70;;
41333;SDS011;27078;46.428;6.256;2023-09-19T08:00:00;1.52;;;0.60;;
41333;SDS011;27078;46.428;6.256;2023-09-19T08:02:26;2.08;;;0.77;;
41333;SDS011;27078;46.428;6.256;2023-09-19T08:04:53;2.17;;;0.65;;
41333;SDS011;27078;46.428;6.256;2023-09-19T08:07:18;1.50;;;0.70;;
41333;SDS011;27078;46.428;6.256;2023-09-19T08:09:44;2.05;;;0.50;;
41333;SDS011;27078;46.428;6.256;2023-09-19T08:12:13;1.75;;;0.55;;
41333;SDS011;27078;46.428;6.256;2023-09-19T08:14:39;2.25;;;0.70;;
41333;SDS011;27078;46.428;6.256;2023-09-19T08:17:06;1.80;;;0.40;;
41333;SDS011;27078;46.428;6.256;2023-09-19T08:19:33;1.95;;;0.60;;
41333;SDS011;27078;46.428;6.256;2023-09-19T08:21:58;2.55;;;0.95;;
41333;SDS011;27078;46.428;6.256;2023-09-19T08:24:33;2.15;;;0.70;;
41333;SDS011;27078;46.428;6.256;2023-09-19T08:26:59;2.63;;;0.70;;
41333;SDS011;27078;46.428;6.256;2023-09-19T08:29:25;1.75;;;0.60;;
41333;SDS011;27078;46.428;6.256;2023-09-19T08:31:55;3.28;;;0.70;;
41333;SDS011;27078;46.428;6.256;2023-09-19T08:34:22;3.63;;;0.80;;
41333;SDS011;27078;46.428;6.256;2023-09-19T08:36:50;2.22;;;0.80;;
41333;SDS011;27078;46.428;6.256;2023-09-19T08:39:17;1.25;;;0.55;;
41333;SDS011;27078;46.428;6.256;2023-09-19T08:41:44;1.58;;;0.77;;
41333;SDS011;27078;46.428;6.256;2023-09-19T08:44:09;2.20;;;0.80;;
41333;SDS011;27078;46.428;6.256;2023-09-19T08:46:35;1.55;;;0.68;;
41333;SDS011;27078;46.428;6.256;2023-09-19T08:49:19;2.78;;;0.90;;
41333;SDS011;27078;46.428;6.256;2023-09-19T08:51:57;1.27;;;0.50;;
41333;SDS011;27078;46.428;6.256;2023-09-19T08:54:32;1.58;;;0.50;;
41333;SDS011;27078;46.428;6.256;2023-09-19T08:57:05;1.98;;;0.50;;
41333;SDS011;27078;46.428;6.256;2023-09-19T08:59:35;2.38;;;0.50;;
41333;SDS011;27078;46.428;6.256;2023-09-19T09:02:04;1.50;;;0.40;;
41333;SDS011;27078;46.428;6.256;2023-09-19T09:04:37;3.50;;;0.60;;
41333;SDS011;27078;46.428;6.256;2023-09-19T09:07:05;3.13;;;0.50;;
41333;SDS011;27078;46.428;6.256;2023-09-19T09:09:35;2.03;;;0.60;;
41333;SDS011;27078;46.428;6.256;2023-09-19T09:12:00;2.50;;;0.50;;
41333;SDS011;27078;46.428;6.256;2023-09-19T09:14:27;2.33;;;0.52;;
41333;SDS011;27078;46.428;6.256;2023-09-19T09:16:55;2.10;;;0.47;;
41333;SDS011;27078;46.428;6.256;2023-09-19T09:19:23;2.10;;;0.57;;
41333;SDS011;27078;46.428;6.256;2023-09-19T09:21:50;2.17;;;0.65;;
41333;SDS011;27078;46.428;6.256;2023-09-19T09:24:29;1.65;;;0.50;;
41333;SDS011;27078;46.428;6.256;2023-09-19T09:26:55;1.17;;;0.40;;
41333;SDS011;27078;46.428;6.256;2023-09-19T09:29:44;1.63;;;0.50;;
41333;SDS011;27078;46.428;6.256;2023-09-19T09:34:49;2.47;;;0.50;;
41333;SDS011;27078;46.428;6.256;2023-09-19T09:37:21;3.00;;;0.50;;
41333;SDS011;27078;46.428;6.256;2023-09-19T09:39:53;2.55;;;0.50;;
41333;SDS011;27078;46.428;6.256;2023-09-19T09:45:20;1.98;;;0.40;;
41333;SDS011;27078;46.428;6.256;2023-09-19T09:47:59;0.90;;;0.43;;
41333;SDS011;27078;46.428;6.256;2023-09-19T09:50:35;1.83;;;0.60;;
41333;SDS011;27078;46.428;6.256;2023-09-19T09:53:05;1.17;;;0.45;;
41333;SDS011;27078;46.428;6.256;2023-09-19T09:55:56;1.88;;;0.70;;
41333;SDS011;27078;46.428;6.256;2023-09-19T09:58:31;2.72;;;0.70;;
41333;SDS011;27078;46.428;6.256;2023-09-19T10:00:58;2.08;;;0.50;;
41333;SDS011;27078;46.428;6.256;2023-09-19T10:03:43;1.60;;;0.60;;
41333;SDS011;27078;46.428;6.256;2023-09-19T10:06:10;2.47;;;0.40;;
41333;SDS011;27078;46.428;6.256;2023-09-19T10:09:07;2.65;;;0.45;;
41333;SDS011;27078;46.428;6.256;2023-09-19T10:11:49;1.85;;;0.40;;
41333;SDS011;27078;46.428;6.256;2023-09-19T10:14:30;1.48;;;0.40;;
41333;SDS011;27078;46.428;6.256;2023-09-19T10:17:00;1.38;;;0.30;;
41333;SDS011;27078;46.428;6.256;2023-09-19T10:19:30;1.75;;;0.47;;
41333;SDS011;27078;46.428;6.256;2023-09-19T10:22:01;1.70;;;0.47;;
41333;SDS011;27078;46.428;6.256;2023-09-19T10:24:29;1.05;;;0.50;;
41333;SDS011;27078;46.428;6.256;2023-09-19T10:26:56;1.98;;;0.50;;
41333;SDS011;27078;46.428;6.256;2023-09-19T10:29:22;1.23;;;0.63;;
41333;SDS011;27078;46.428;6.256;2023-09-19T10:31:50;2.55;;;0.80;;
41333;SDS011;27078;46.428;6.256;2023-09-19T10:34:18;1.65;;;0.60;;
41333;SDS011;27078;46.428;6.256;2023-09-19T10:36:47;4.75;;;0.70;;
41333;SDS011;27078;46.428;6.256;2023-09-19T10:39:14;2.28;;;0.80;;
41333;SDS011;27078;46.428;6.256;2023-09-19T10:41:45;4.35;;;0.70;;
41333;SDS011;27078;46.428;6.256;2023-09-19T10:44:18;2.20;;;0.70;;
41333;SDS011;27078;46.428;6.256;2023-09-19T10:46:48;2.67;;;0.60;;
41333;SDS011;27078;46.428;6.256;2023-09-19T10:49:14;3.03;;;0.80;;
41333;SDS011;27078;46.428;6.256;2023-09-19T10:51:40;1.33;;;0.63;;
41333;SDS011;27078;46.428;6.256;2023-09-19T10:54:14;2.63;;;0.70;;
41333;SDS011;27078;46.428;6.256;2023-09-19T10:56:47;2.45;;;0.80;;
41333;SDS011;27078;46.428;6.256;2023-09-19T10:59:17;1.67;;;0.50;;
41333;SDS011;27078;46.428;6.256;2023-09-19T11:01:44;2.63;;;0.52;;
41333;SDS011;27078;46.428;6.256;2023-09-19T11:17:57;1.85;;;0.30;;
41333;SDS011;27078;46.428;6.256;2023-09-19T11:20:24;0.90;;;0.35;;
41333;SDS011;27078;46.428;6.256;2023-09-19T11:25:42;1.48;;;0.43;;
41333;SDS011;27078;46.428;6.256;2023-09-19T11:30:41;2.42;;;0.90;;
41333;SDS011;27078;46.428;6.256;2023-09-19T11:36:00;1.83;;;0.60;;
41333;SDS011;27078;46.428;6.256;2023-09-19T11:43:45;0.88;;;0.50;;
41333;SDS011;27078;46.428;6.256;2023-09-19T11:46:12;1.67;;;0.60;;
41333;SDS011;27078;46.428;6.256;2023-09-19T11:48:41;1.88;;;0.70;;
41333;SDS011;27078;46.428;6.256;2023-09-19T11:51:12;2.97;;;0.80;;
41333;SDS011;27078;46.428;6.256;2023-09-19T11:53:47;2.30;;;0.80;;
41333;SDS011;27078;46.428;6.256;2023-09-19T11:56:17;3.15;;;0.90;;
41333;SDS011;27078;46.428;6.256;2023-09-19T11:58:45;4.70;;;0.85;;
41333;SDS011;27078;46.428;6.256;2023-09-19T12:01:12;2.90;;;0.80;;
41333;SDS011;27078;46.428;6.256;2023-09-19T12:03:46;3.72;;;0.75;;
41333;SDS011;27078;46.428;6.256;2023-09-19T12:06:15;2.67;;;0.68;;
41333;SDS011;27078;46.428;6.256;2023-09-19T12:08:41;1.85;;;0.70;;
41333;SDS011;27078;46.428;6.256;2023-09-19T12:11:11;1.67;;;0.70;;
41333;SDS011;27078;46.428;6.256;2023-09-19T12:13:41;1.83;;;0.70;;
41333;SDS011;27078;46.428;6.256;2023-09-19T12:16:17;3.05;;;0.70;;
41333;SDS011;27078;46.428;6.256;2023-09-19T12:18:47;1.65;;;0.70;;
41333;SDS011;27078;46.428;6.256;2023-09-19T12:24:13;3.28;;;0.80;;
41333;SDS011;27078;46.428;6.256;2023-09-19T12:26:39;4.22;;;0.90;;
41333;SDS011;27078;46.428;6.256;2023-09-19T12:29:10;1.08;;;0.60;;
41333;SDS011;27078;46.428;6.256;2023-09-19T12:31:55;1.80;;;0.70;;
41333;SDS011;27078;46.428;6.256;2023-09-19T12:34:27;2.55;;;0.60;;
41333;SDS011;27078;46.428;6.256;2023-09-19T12:37:03;2.40;;;0.60;;
41333;SDS011;27078;46.428;6.256;2023-09-19T12:39:28;1.73;;;0.70;;
41333;SDS011;27078;46.428;6.256;2023-09-19T12:41:54;1.25;;;0.60;;
41333;SDS011;27078;46.428;6.256;2023-09-19T12:44:20;2.50;;;0.70;;
41333;SDS011;27078;46.428;6.256;2023-09-19T12:46:46;1.67;;;0.70;;
41333;SDS011;27078;46.428;6.256;2023-09-19T12:49:15;2.50;;;0.80;;
41333;SDS011;27078;46.428;6.256;2023-09-19T12:51:44;2.72;;;0.80;;
41333;SDS011;27078;46.428;6.256;2023-09-19T12:54:11;2.45;;;0.77;;
41333;SDS011;27078;46.428;6.256;2023-09-19T12:56:39;1.88;;;0.70;;
41333;SDS011;27078;46.428;6.256;2023-09-19T12:59:10;2.28;;;0.88;;
41333;SDS011;27078;46.428;6.256;2023-09-19T13:01:38;3.08;;;0.90;;
41333;SDS011;27078;46.428;6.256;2023-09-19T13:06:50;2.25;;;1.00;;
41333;SDS011;27078;46.428;6.256;2023-09-19T13:09:16;2.65;;;0.70;;
41333;SDS011;27078;46.428;6.256;2023-09-19T13:11:43;2.42;;;0.90;;
41333;SDS011;27078;46.428;6.256;2023-09-19T13:14:23;2.83;;;0.77;;
41333;SDS011;27078;46.428;6.256;2023-09-19T13:16:53;3.80;;;0.90;;
41333;SDS011;27078;46.428;6.256;2023-09-19T13:25:17;1.98;;;0.70;;
41333;SDS011;27078;46.428;6.256;2023-09-19T13:27:43;2.25;;;0.80;;
41333;SDS011;27078;46.428;6.256;2023-09-19T13:30:10;4.18;;;1.00;;
41333;SDS011;27078;46.428;6.256;2023-09-19T13:32:37;2.67;;;0.70;;
41333;SDS011;27078;46.428;6.256;2023-09-19T13:35:03;2.05;;;0.60;;
41333;SDS011;27078;46.428;6.256;2023-09-19T13:37:30;2.45;;;0.70;;
41333;SDS011;27078;46.428;6.256;2023-09-19T13:39:55;3.92;;;0.95;;
41333;SDS011;27078;46.428;6.256;2023-09-19T13:42:22;2.33;;;1.00;;
41333;SDS011;27078;46.428;6.256;2023-09-19T13:44:50;2.47;;;0.90;;
41333;SDS011;27078;46.428;6.256;2023-09-19T13:47:15;2.58;;;0.88;;
41333;SDS011;27078;46.428;6.256;2023-09-19T13:49:41;2.40;;;0.90;;
41333;SDS011;27078;46.428;6.256;2023-09-19T13:52:08;2.80;;;1.05;;
41333;SDS011;27078;46.428;6.256;2023-09-19T13:54:33;2.05;;;0.80;;
41333;SDS011;27078;46.428;6.256;2023-09-19T13:56:59;2.72;;;0.95;;
41333;SDS011;27078;46.428;6.256;2023-09-19T13:59:25;1.67;;;0.90;;
41333;SDS011;27078;46.428;6.256;2023-09-19T14:01:53;2.15;;;0.75;;
41333;SDS011;27078;46.428;6.256;2023-09-19T14:04:19;1.88;;;0.65;;
41333;SDS011;27078;46.428;6.256;2023-09-19T14:06:46;3.13;;;0.90;;
41333;SDS011;27078;46.428;6.256;2023-09-19T14:09:11;2.25;;;0.85;;
41333;SDS011;27078;46.428;6.256;2023-09-19T14:11:38;2.25;;;0.80;;
41333;SDS011;27078;46.428;6.256;2023-09-19T14:14:04;2.08;;;0.70;;
41333;SDS011;27078;46.428;6.256;2023-09-19T14:16:29;1.95;;;0.80;;
41333;SDS011;27078;46.428;6.256;2023-09-19T14:18:56;1.75;;;0.73;;
41333;SDS011;27078;46.428;6.256;2023-09-19T14:21:24;1.88;;;0.80;;
41333;SDS011;27078;46.428;6.256;2023-09-19T14:23:50;4.65;;;1.00;;
41333;SDS011;27078;46.428;6.256;2023-09-19T14:26:16;19.25;;;1.92;;
41333;SDS011;27078;46.428;6.256;2023-09-19T14:28:42;10.07;;;1.25;;
41333;SDS011;27078;46.428;6.256;2023-09-19T14:31:08;16.08;;;1.58;;
41333;SDS011;27078;46.428;6.256;2023-09-19T14:33:36;2.92;;;1.00;;
41333;SDS011;27078;46.428;6.256;2023-09-19T14:36:06;2.42;;;0.80;;
41333;SDS011;27078;46.428;6.256;2023-09-19T14:38:33;3.95;;;0.85;;
41333;SDS011;27078;46.428;6.256;2023-09-19T14:41:00;1.25;;;0.60;;
41333;SDS011;27078;46.428;6.256;2023-09-19T14:43:26;2.47;;;0.80;;
41333;SDS011;27078;46.428;6.256;2023-09-19T14:45:52;1.50;;;0.68;;
41333;SDS011;27078;46.428;6.256;2023-09-19T14:48:17;1.80;;;0.60;;
41333;SDS011;27078;46.428;6.256;2023-09-19T14:50:42;2.25;;;0.80;;
41333;SDS011;27078;46.428;6.256;2023-09-19T14:53:09;1.48;;;0.70;;
41333;SDS011;27078;46.428;6.256;2023-09-19T14:55:38;2.05;;;0.73;;
41333;SDS011;27078;46.428;6.256;2023-09-19T14:58:06;2.47;;;0.90;;
41333;SDS011;27078;46.428;6.256;2023-09-19T15:00:32;6.47;;;0.80;;
41333;SDS011;27078;46.428;6.256;2023-09-19T15:03:00;2.50;;;0.75;;
41333;SDS011;27078;46.428;6.256;2023-09-19T15:05:25;2.97;;;0.73;;
41333;SDS011;27078;46.428;6.256;2023-09-19T15:07:50;2.90;;;0.80;;
41333;SDS011;27078;46.428;6.256;2023-09-19T15:10:16;3.65;;;0.90;;
41333;SDS011;27078;46.428;6.256;2023-09-19T15:12:43;1.83;;;0.52;;
41333;SDS011;27078;46.428;6.256;2023-09-19T15:15:09;2.78;;;0.60;;
41333;SDS011;27078;46.428;6.256;2023-09-19T15:17:37;2.03;;;0.60;;
41333;SDS011;27078;46.428;6.256;2023-09-19T15:20:03;2.17;;;0.70;;
41333;SDS011;27078;46.428;6.256;2023-09-19T15:22:31;2.13;;;0.65;;
41333;SDS011;27078;46.428;6.256;2023-09-19T15:24:58;2.20;;;0.73;;
41333;SDS011;27078;46.428;6.256;2023-09-19T15:27:23;1.88;;;0.60;;
41333;SDS011;27078;46.428;6.256;2023-09-19T15:29:48;1.50;;;0.57;;
41333;SDS011;27078;46.428;6.256;2023-09-19T15:32:14;2.22;;;0.70;;
41333;SDS011;27078;46.428;6.256;2023-09-19T15:34:39;2.05;;;0.90;;
41333;SDS011;27078;46.428;6.256;2023-09-19T15:37:05;3.67;;;0.73;;
41333;SDS011;27078;46.428;6.256;2023-09-19T15:39:30;1.38;;;0.80;;
41333;SDS011;27078;46.428;6.256;2023-09-19T15:41:58;2.22;;;0.68;;
41333;SDS011;27078;46.428;6.256;2023-09-19T15:44:24;1.23;;;0.60;;
41333;SDS011;27078;46.428;6.256;2023-09-19T15:46:51;1.20;;;0.50;;
41333;SDS011;27078;46.428;6.256;2023-09-19T15:49:17;2.47;;;0.60;;
41333;SDS011;27078;46.428;6.256;2023-09-19T15:51:43;1.58;;;0.60;;
41333;SDS011;27078;46.428;6.256;2023-09-19T15:54:10;2.95;;;0.80;;
41333;SDS011;27078;46.428;6.256;2023-09-19T15:56:39;2.60;;;0.70;;